FIMPSLLP

Guest
Details From FIMP - Sir Seewoosagur Ramgoolam Intl
To SLLP - La Paz
Flight Number -
Tags Generated
Created
Modified
Stats Distance 6,925 nm / 12,825 km
Max Altitude 0 ft / 0 m
Waypoints 6
Social Downloads 1
Likes 0
Share VATSIM

Download

Looking for another format? Having issues loading an existing format? Contact us
Advertisement - Login to hide

Notes

Generated

Route

FIMP NEVIR ESENO ILBEK LPZ SLLP

ID Type Via Altitude Latitude Longitude Leg Dist Tot Dist Heading (true) Name
O FIMP APT - 0 ft / 0 m -20.42332˚ 57.66925˚ - 0 nm - -
NEVIR FIX - 0 ft / 0 m -34.26447˚ 20.16506˚ 2151 nm 2151 nm 239° / 257° -
ESENO FIX - 0 ft / 0 m -27.11067˚ -48.13717˚ 3488 nm 5640 nm 257° / 295° -
ILBEK FIX - 0 ft / 0 m -25.67650˚ -51.45783˚ 198 nm 5838 nm 295° / 296° -
LPZ NDB - 0 ft / 0 m -16.50786˚ -68.16908˚ 1084 nm 6923 nm 297° / 303° LA PAZ NDB
O SLLP APT - 0 ft / 0 m -16.50414˚ -68.19836˚ 1 nm 6924 nm 278° / 278° -

Altitude Profile

Advertisement - Login to hide

Weather


0- 5 10 15 20 25 30 35+ Temperature / ° C

Clouds and Precipitation
Forecast for 2018-05-25 12:00 UTC. Updated 6 hours ago

Ground ~20,000 ft ~40,000 ft Winds

FIMP

Details ICAO FIMP (MRU)
Name SIR SEEWOOSAGUR RAMGOOLAM INTL
Region Mauritius
Timezone Indian/Mauritius (UTC+4.0)
Stats Elevation 186 ft / 57 m (AMSL)
Location -20.430235° 57.683602°
Runways 1
Magnetic Variation 18.389° W

METAR

FIMP 251700Z 09014KT 9999 VCSH BKN015 25/20 Q1020

Decode

TAF

TAF FIMP 251200Z 2512/2618 10015G25KT 9999 SCT018 BKN050 TEMPO 2518/2603 7000 -SHRA FEW010 BKN013 BKN045

Decode

Departure Runways

ID Width Length Bearing (true) Bearing (mag) Surface Threshold Offset Overrun Length
14 148 ft / 45 m 11,037 ft / 3,364 m 117.22° 135.61° Asphalt 1,082 ft / 330 m 200 ft / 61 m
32 148 ft / 45 m 11,037 ft / 3,364 m 297.21° 315.60° Asphalt 0 ft / 0 m 0 ft / 0 m

SLLP

Details ICAO SLLP (LPB)
Name La Paz
Region Bolivia
Timezone America/La_Paz (UTC-4.0)
Stats Elevation 13,313 ft / 4,058 m (AMSL)
Location -16.509356° -68.190551°
Runways 2
Magnetic Variation 8.002° W

METAR

SLLP 251700Z 23004KT 9999 NSC 15/M10 Q1039

Decode

TAF

Not found

Destination Runways

ID Width Length Bearing (true) Bearing (mag) Surface Threshold Offset Overrun Length
10 151 ft / 46 m 13,106 ft / 3,995 m 91.90° 99.90° Concrete 0 ft / 0 m 200 ft / 61 m
10L 300 ft / 91 m 6,718 ft / 2,048 m 97.72° 105.72° Dirt 0 ft / 0 m 0 ft / 0 m
28 151 ft / 46 m 13,106 ft / 3,995 m 271.89° 279.89° Concrete 0 ft / 0 m 0 ft / 0 m
28R 300 ft / 91 m 6,718 ft / 2,048 m 277.71° 285.71° Dirt 0 ft / 0 m 0 ft / 0 m

Approach Navaids

Runway Type Ident Frequency Range Bearing (true) Bearing (mag) Slope Elevation
10 Localiser ILPA 110.30 MHz 18 nm / 33 km 91.89° 99.89° - 13,313 ft / 4,058 m (AMSL)
10 Glidescope ILPA 110.30 MHz 10 nm / 19 km 91.89° 99.90° 2.40° 13,313 ft / 4,058 m (AMSL)